createdAt,value
2023-04-09T00:00:16.688Z,30.20
2023-04-09T00:02:43.912Z,29.77
2023-04-09T00:05:11.305Z,27.87
2023-04-09T00:07:38.495Z,28.03
2023-04-09T00:10:06.076Z,29.37
2023-04-09T00:12:33.227Z,29.17
2023-04-09T00:15:00.389Z,27.57
2023-04-09T00:17:27.531Z,28.63
2023-04-09T00:19:54.713Z,29.33
2023-04-09T00:22:21.800Z,29.30
2023-04-09T00:24:48.919Z,27.77
2023-04-09T00:27:16.234Z,28.07
2023-04-09T00:29:43.334Z,31.20
2023-04-09T00:32:10.472Z,30.97
2023-04-09T00:34:38.784Z,30.13
2023-04-09T00:37:06.289Z,31.80
2023-04-09T00:39:33.382Z,30.67
2023-04-09T00:42:02.953Z,31.03
2023-04-09T00:44:30.477Z,30.53
2023-04-09T00:47:00.600Z,27.63
2023-04-09T00:49:28.094Z,29.07
2023-04-09T00:51:55.359Z,29.53
2023-04-09T00:54:22.650Z,27.70
2023-04-09T00:56:49.744Z,28.73
2023-04-09T00:59:16.922Z,28.73
2023-04-09T01:01:44.072Z,31.40
2023-04-09T01:04:11.384Z,30.57
2023-04-09T01:06:58.739Z,29.63
2023-04-09T01:09:29.304Z,30.17
2023-04-09T01:11:59.524Z,30.23
2023-04-09T01:14:33.440Z,32.43
2023-04-09T01:17:04.060Z,34.93
2023-04-09T01:20:04.877Z,32.23
2023-04-09T01:22:36.726Z,30.63
2023-04-09T01:25:12.932Z,31.10
2023-04-09T01:27:58.779Z,34.73
2023-04-09T01:30:27.013Z,31.83
2023-04-09T01:32:55.387Z,32.63
2023-04-09T01:35:22.700Z,30.77
2023-04-09T01:37:50.459Z,34.43
2023-04-09T01:40:17.971Z,31.97
2023-04-09T01:42:45.895Z,34.40
2023-04-09T01:45:14.104Z,33.60
2023-04-09T01:47:42.013Z,34.53
2023-04-09T01:50:09.479Z,35.97
2023-04-09T01:52:36.760Z,40.33
2023-04-09T01:55:03.947Z,37.13
2023-04-09T01:57:31.764Z,33.70
2023-04-09T01:59:58.882Z,31.50
2023-04-09T02:02:31.792Z,35.73
2023-04-09T02:04:59.647Z,33.07
2023-04-09T02:07:35.069Z,31.43
2023-04-09T02:10:02.549Z,30.30
2023-04-09T02:12:30.900Z,31.17
2023-04-09T02:14:59.144Z,31.87
2023-04-09T02:17:26.311Z,31.90
2023-04-09T02:19:53.475Z,29.60
2023-04-09T02:22:20.644Z,30.53
2023-04-09T02:24:47.829Z,30.10
2023-04-09T02:27:14.955Z,34.23
2023-04-09T02:29:42.171Z,31.87
2023-04-09T02:32:09.453Z,31.40
2023-04-09T02:34:36.637Z,31.63
2023-04-09T02:37:03.749Z,30.53
2023-04-09T02:39:30.900Z,32.03
2023-04-09T02:41:58.018Z,31.50
2023-04-09T02:44:25.187Z,37.53
2023-04-09T02:46:52.760Z,33.50
2023-04-09T02:49:19.913Z,30.97
2023-04-09T02:51:47.022Z,32.80
2023-04-09T02:54:14.155Z,33.17
2023-04-09T02:56:41.286Z,35.70
2023-04-09T02:59:08.398Z,31.47
2023-04-09T03:01:35.691Z,32.23
2023-04-09T03:04:03.062Z,35.77
2023-04-09T03:06:30.254Z,33.67
2023-04-09T03:08:57.377Z,32.10
2023-04-09T03:11:24.563Z,33.10
2023-04-09T03:13:51.694Z,31.93
2023-04-09T03:16:18.962Z,32.77
2023-04-09T03:18:46.228Z,36.87
2023-04-09T03:21:15.059Z,37.47
2023-04-09T03:23:42.387Z,37.70
2023-04-09T03:26:09.494Z,38.03
2023-04-09T03:28:36.676Z,35.47
2023-04-09T03:31:03.824Z,40.77
2023-04-09T03:33:30.993Z,38.27
2023-04-09T03:35:58.128Z,37.17
2023-04-09T03:38:25.352Z,38.83
2023-04-09T03:40:52.493Z,37.93
2023-04-09T03:43:19.624Z,40.00
2023-04-09T03:45:46.734Z,39.87
2023-04-09T03:48:13.875Z,37.07
2023-04-09T03:50:41.568Z,40.20
2023-04-09T03:53:08.850Z,38.67
2023-04-09T03:55:36.492Z,38.23
2023-04-09T03:58:03.590Z,38.40
2023-04-09T04:00:30.803Z,38.23
2023-04-09T04:02:58.192Z,36.97
2023-04-09T04:05:26.306Z,39.33
2023-04-09T04:07:53.677Z,39.27
2023-04-09T04:10:20.869Z,42.00
2023-04-09T04:12:48.067Z,41.67
2023-04-09T04:15:15.565Z,40.17
2023-04-09T04:17:42.778Z,39.70
2023-04-09T04:20:10.218Z,38.87
2023-04-09T04:22:37.387Z,39.43
2023-04-09T04:25:05.392Z,37.27
2023-04-09T04:27:32.587Z,39.17
2023-04-09T04:30:01.983Z,37.50
2023-04-09T04:32:29.247Z,36.20
2023-04-09T04:34:56.372Z,41.30
2023-04-09T04:37:23.552Z,40.27
2023-04-09T04:39:50.796Z,41.63
2023-04-09T04:42:18.281Z,41.17
2023-04-09T04:44:45.815Z,40.77
2023-04-09T04:47:12.936Z,40.40
2023-04-09T04:49:40.246Z,40.07
2023-04-09T04:52:07.806Z,41.23
2023-04-09T04:54:34.998Z,40.00
2023-04-09T04:57:02.239Z,41.13
2023-04-09T04:59:29.560Z,42.00
2023-04-09T05:01:56.774Z,41.03
2023-04-09T05:04:24.000Z,46.03
2023-04-09T05:06:51.461Z,45.40
2023-04-09T05:09:20.499Z,43.57
2023-04-09T05:11:49.045Z,39.37
2023-04-09T05:14:16.195Z,34.63
2023-04-09T05:16:43.389Z,39.27
2023-04-09T05:19:10.499Z,30.97
2023-04-09T05:21:37.622Z,35.73
2023-04-09T05:24:05.338Z,32.13
2023-04-09T05:26:32.453Z,29.13
2023-04-09T05:28:59.597Z,31.43
2023-04-09T05:31:26.746Z,30.10
2023-04-09T05:33:53.987Z,31.43
2023-04-09T05:36:21.231Z,30.77
2023-04-09T05:38:48.538Z,29.77
2023-04-09T05:41:15.759Z,27.80
2023-04-09T05:43:43.084Z,26.33
2023-04-09T05:46:10.785Z,25.27
2023-04-09T05:48:38.090Z,25.57
2023-04-09T05:51:05.212Z,24.70
2023-04-09T05:53:32.787Z,24.47
2023-04-09T05:55:59.943Z,27.10
2023-04-09T05:58:28.920Z,24.90
2023-04-09T06:00:56.156Z,26.67
2023-04-09T06:03:23.362Z,23.60
2023-04-09T06:05:50.592Z,23.98
2023-04-09T06:08:17.800Z,23.65
2023-04-09T06:10:44.929Z,24.85
2023-04-09T06:13:12.104Z,26.30
2023-04-09T06:15:39.575Z,25.25
2023-04-09T06:18:06.999Z,23.50
2023-04-09T06:20:34.717Z,23.15
2023-04-09T06:23:01.906Z,25.85
2023-04-09T06:25:29.150Z,24.30
2023-04-09T06:27:56.718Z,24.77
2023-04-09T06:30:23.839Z,25.20
2023-04-09T06:32:55.100Z,25.97
2023-04-09T06:35:22.803Z,25.63
2023-04-09T06:37:49.997Z,24.53
2023-04-09T06:40:17.265Z,26.13
2023-04-09T06:42:44.505Z,26.60
2023-04-09T06:45:11.724Z,25.90
2023-04-09T06:47:38.859Z,24.03
2023-04-09T06:50:06.250Z,27.03
2023-04-09T06:52:33.476Z,28.53
2023-04-09T06:55:00.926Z,30.30
2023-04-09T06:57:28.025Z,29.97
2023-04-09T06:59:55.712Z,28.93
2023-04-09T07:02:22.978Z,31.10
2023-04-09T07:04:50.681Z,29.33
2023-04-09T07:07:18.563Z,30.43
2023-04-09T07:09:45.894Z,28.73
2023-04-09T07:12:13.019Z,28.70
2023-04-09T07:14:40.206Z,26.83
2023-04-09T07:17:07.309Z,28.43
2023-04-09T07:19:34.404Z,23.30
2023-04-09T07:22:01.545Z,24.88
2023-04-09T07:24:28.698Z,26.30
2023-04-09T07:26:56.323Z,26.00
2023-04-09T07:29:23.503Z,25.13
2023-04-09T07:31:50.949Z,23.30
2023-04-09T07:34:18.155Z,25.77
2023-04-09T07:36:45.269Z,25.97
2023-04-09T07:39:12.391Z,24.27
2023-04-09T07:41:39.510Z,24.87
2023-04-09T07:44:07.543Z,24.93
2023-04-09T07:46:34.759Z,25.93
2023-04-09T07:49:01.904Z,24.30
2023-04-09T07:51:29.019Z,26.33
2023-04-09T07:53:56.150Z,24.70
2023-04-09T07:56:23.265Z,23.45
2023-04-09T07:58:50.899Z,24.65
2023-04-09T08:01:18.151Z,23.75
2023-04-09T08:03:45.479Z,22.42
2023-04-09T08:06:12.731Z,21.50
2023-04-09T08:08:39.898Z,21.52
2023-04-09T08:11:07.653Z,21.40
2023-04-09T08:13:34.866Z,21.52
2023-04-09T08:16:02.394Z,22.50
2023-04-09T08:18:29.711Z,20.88
2023-04-09T08:20:57.892Z,22.45
2023-04-09T08:23:25.339Z,21.30
2023-04-09T08:25:52.503Z,21.40
2023-04-09T08:28:19.637Z,20.35
2023-04-09T08:30:47.740Z,20.48
2023-04-09T08:33:15.279Z,20.40
2023-04-09T08:35:42.602Z,19.48
2023-04-09T08:38:09.832Z,20.83
2023-04-09T08:40:37.061Z,21.50
2023-04-09T08:43:08.971Z,20.33
2023-04-09T08:45:36.559Z,21.83
2023-04-09T08:48:04.540Z,21.55
2023-04-09T08:50:33.837Z,19.25
2023-04-09T08:53:03.060Z,18.52
2023-04-09T08:55:31.235Z,18.85
2023-04-09T08:57:58.522Z,18.30
2023-04-09T09:00:25.668Z,20.17
2023-04-09T09:03:06.981Z,18.55
2023-04-09T09:05:36.264Z,22.50
2023-04-09T09:08:03.393Z,20.42
2023-04-09T09:10:40.607Z,19.45
2023-04-09T09:13:36.922Z,19.52
2023-04-09T09:16:15.082Z,20.73
2023-04-09T09:18:43.196Z,19.92
2023-04-09T09:21:11.586Z,20.42
2023-04-09T09:23:38.747Z,21.85
2023-04-09T09:26:35.015Z,19.95
2023-04-09T09:29:05.748Z,21.70
2023-04-09T09:31:46.168Z,18.77
2023-04-09T09:34:13.416Z,18.98
2023-04-09T09:36:40.573Z,20.38
2023-04-09T09:39:10.618Z,18.23
2023-04-09T09:41:38.035Z,17.40
2023-04-09T09:44:07.245Z,18.23
2023-04-09T09:46:35.758Z,18.52
2023-04-09T09:49:03.117Z,18.30
2023-04-09T09:51:32.464Z,19.00
2023-04-09T09:53:59.825Z,19.63
2023-04-09T09:56:32.801Z,20.70
2023-04-09T09:59:07.846Z,17.08
2023-04-09T10:01:36.572Z,17.25
2023-04-09T10:04:06.387Z,17.27
2023-04-09T10:06:34.550Z,15.43
2023-04-09T10:09:06.825Z,16.02
2023-04-09T10:11:34.498Z,15.60
2023-04-09T10:14:02.493Z,15.32
2023-04-09T10:16:29.814Z,16.63
2023-04-09T10:18:57.776Z,16.60
2023-04-09T10:21:46.229Z,16.50
2023-04-09T10:24:13.472Z,14.77
2023-04-09T10:26:42.142Z,15.25
2023-04-09T10:29:13.794Z,13.55
2023-04-09T10:32:04.622Z,12.55
2023-04-09T10:34:35.288Z,13.13
2023-04-09T10:37:02.968Z,13.23
2023-04-09T10:39:33.953Z,11.38
2023-04-09T10:42:05.561Z,12.40
2023-04-09T10:44:32.823Z,15.10
2023-04-09T10:47:00.078Z,14.73
2023-04-09T10:49:28.102Z,14.60
2023-04-09T10:52:02.423Z,14.15
2023-04-09T10:54:36.143Z,16.13
2023-04-09T10:57:09.494Z,14.32
2023-04-09T10:59:43.313Z,13.95
2023-04-09T11:02:21.271Z,13.50
2023-04-09T11:04:56.950Z,12.63
2023-04-09T11:07:24.836Z,13.00
2023-04-09T11:09:51.930Z,13.40
2023-04-09T11:12:19.090Z,13.50
2023-04-09T11:14:46.177Z,12.60
2023-04-09T11:17:13.831Z,13.32
2023-04-09T11:19:40.987Z,13.85
2023-04-09T11:22:08.234Z,13.30
2023-04-09T11:24:44.894Z,12.52
2023-04-09T11:27:12.062Z,14.68
2023-04-09T11:29:39.534Z,12.45
2023-04-09T11:32:06.709Z,11.82
2023-04-09T11:34:33.920Z,12.43
2023-04-09T11:37:05.353Z,14.25
2023-04-09T11:39:32.477Z,13.15
2023-04-09T11:41:59.686Z,12.07
2023-04-09T11:44:26.762Z,12.48
2023-04-09T11:46:53.960Z,12.40
2023-04-09T11:49:21.622Z,11.50
2023-04-09T11:51:48.931Z,10.90
2023-04-09T11:54:16.028Z,10.52
2023-04-09T11:56:43.142Z,10.23
2023-04-09T11:59:10.667Z,11.05
2023-04-09T12:01:37.859Z,10.45
2023-04-09T12:04:06.900Z,10.18
2023-04-09T12:06:34.366Z,11.20
2023-04-09T12:09:02.049Z,9.55
2023-04-09T12:11:29.918Z,10.30
2023-04-09T12:14:01.389Z,10.13
2023-04-09T12:16:31.518Z,11.13
2023-04-09T12:19:06.632Z,10.88
2023-04-09T12:21:47.916Z,10.63
2023-04-09T12:24:15.353Z,9.35
2023-04-09T12:26:42.478Z,10.48
2023-04-09T12:29:09.622Z,10.32
2023-04-09T12:31:36.822Z,11.25
2023-04-09T12:34:03.957Z,10.30
2023-04-09T12:36:31.130Z,9.77
2023-04-09T12:38:58.311Z,11.07
2023-04-09T12:41:25.484Z,11.70
2023-04-09T12:43:52.870Z,12.15
2023-04-09T12:46:20.312Z,10.68
2023-04-09T12:48:47.836Z,11.20
2023-04-09T12:51:14.972Z,12.65
2023-04-09T12:53:42.121Z,10.63
2023-04-09T12:56:09.413Z,11.05
2023-04-09T12:58:37.783Z,11.00
2023-04-09T13:01:06.672Z,10.35
2023-04-09T13:03:34.084Z,9.95
2023-04-09T13:06:01.338Z,10.65
2023-04-09T13:08:28.520Z,10.93
2023-04-09T13:10:55.798Z,10.25
2023-04-09T13:13:22.984Z,11.68
2023-04-09T13:15:50.088Z,10.93
2023-04-09T13:18:17.168Z,10.88
2023-04-09T13:20:44.293Z,10.60
2023-04-09T13:23:11.463Z,10.82
2023-04-09T13:25:38.635Z,12.35
2023-04-09T13:28:05.762Z,11.13
2023-04-09T13:30:32.969Z,12.80
2023-04-09T13:33:00.268Z,10.90
2023-04-09T13:35:27.772Z,10.27
2023-04-09T13:37:54.861Z,11.00
2023-04-09T13:40:21.975Z,12.20
2023-04-09T13:42:49.069Z,11.60
2023-04-09T13:45:16.631Z,12.07
2023-04-09T13:47:43.728Z,11.90
2023-04-09T13:50:13.036Z,12.15
2023-04-09T13:52:40.256Z,15.30
2023-04-09T13:55:08.025Z,11.88
2023-04-09T13:57:35.209Z,13.60
2023-04-09T14:00:04.738Z,11.32
2023-04-09T14:02:32.629Z,11.80
2023-04-09T14:04:59.973Z,11.10
2023-04-09T14:07:27.160Z,12.25
2023-04-09T14:09:54.261Z,13.63
2023-04-09T14:12:21.610Z,12.80
2023-04-09T14:14:49.904Z,12.10
2023-04-09T14:17:17.007Z,13.52
2023-04-09T14:19:44.136Z,12.55
2023-04-09T14:22:11.557Z,12.30
2023-04-09T14:24:40.058Z,13.70
2023-04-09T14:27:08.222Z,13.68
2023-04-09T14:29:36.532Z,12.80
2023-04-09T14:32:03.695Z,13.10
2023-04-09T14:34:34.107Z,14.63
2023-04-09T14:37:01.232Z,13.43
2023-04-09T14:39:28.321Z,12.70
2023-04-09T14:41:57.123Z,13.43
2023-04-09T14:44:27.205Z,11.68
2023-04-09T14:46:55.205Z,13.52
2023-04-09T14:49:22.489Z,11.80
2023-04-09T14:51:49.688Z,11.77
2023-04-09T14:54:16.830Z,11.70
2023-04-09T14:56:43.937Z,12.27
2023-04-09T14:59:11.074Z,12.87
2023-04-09T15:01:38.297Z,11.87
2023-04-09T15:04:05.561Z,11.15
2023-04-09T15:06:32.953Z,11.15
2023-04-09T15:09:00.191Z,9.98
2023-04-09T15:11:28.061Z,10.38
2023-04-09T15:13:56.301Z,10.55
2023-04-09T15:16:28.844Z,11.93
2023-04-09T15:18:58.554Z,13.17
2023-04-09T15:21:27.035Z,12.87
2023-04-09T15:23:54.217Z,12.87
2023-04-09T15:26:21.360Z,12.50
2023-04-09T15:28:48.701Z,11.77
2023-04-09T15:31:16.168Z,12.77
2023-04-09T15:33:44.706Z,14.30
2023-04-09T15:36:12.034Z,12.47
2023-04-09T15:38:39.215Z,13.97
2023-04-09T15:41:06.347Z,12.67
2023-04-09T15:43:33.566Z,14.40
2023-04-09T15:46:00.931Z,12.45
2023-04-09T15:48:28.064Z,13.48
2023-04-09T15:50:55.305Z,11.52
2023-04-09T15:53:26.611Z,11.38
2023-04-09T15:55:53.864Z,12.23
2023-04-09T15:58:21.028Z,12.50
2023-04-09T16:00:51.346Z,11.83
2023-04-09T16:03:19.335Z,11.80
2023-04-09T16:05:47.682Z,14.30
2023-04-09T16:08:14.945Z,11.63
2023-04-09T16:10:42.098Z,11.97
2023-04-09T16:13:09.272Z,11.90
2023-04-09T16:15:36.536Z,11.80
2023-04-09T16:18:03.724Z,13.07
2023-04-09T16:20:31.281Z,13.00
2023-04-09T16:22:58.468Z,13.43
2023-04-09T16:25:25.805Z,15.67
2023-04-09T16:27:52.914Z,13.33
2023-04-09T16:30:20.253Z,13.40
2023-04-09T16:32:47.430Z,15.00
2023-04-09T16:35:14.696Z,19.07
2023-04-09T16:37:41.793Z,17.33
2023-04-09T16:40:09.188Z,21.87
2023-04-09T16:42:36.791Z,17.17
2023-04-09T16:45:04.630Z,18.47
2023-04-09T16:47:32.069Z,18.50
2023-04-09T16:49:59.257Z,13.73
2023-04-09T16:52:27.751Z,16.67
2023-04-09T16:54:55.459Z,14.57
2023-04-09T16:59:49.759Z,13.87
2023-04-09T17:02:16.896Z,13.13
2023-04-09T17:04:44.022Z,16.20
2023-04-09T17:07:11.149Z,13.97
2023-04-09T17:09:38.235Z,15.10
2023-04-09T17:12:05.352Z,15.87
2023-04-09T17:14:33.761Z,13.47
2023-04-09T17:17:01.153Z,11.83
2023-04-09T17:19:28.278Z,13.13
2023-04-09T17:21:55.395Z,13.03
2023-04-09T17:24:22.524Z,15.20
2023-04-09T17:26:49.680Z,12.37
2023-04-09T17:29:17.301Z,23.47
2023-04-09T17:31:44.909Z,30.67
2023-04-09T17:34:13.538Z,68.03
2023-04-09T17:36:41.423Z,49.67
2023-04-09T17:39:08.722Z,38.13
2023-04-09T17:41:36.436Z,26.30
2023-04-09T17:44:03.571Z,27.23
2023-04-09T17:46:30.856Z,22.37
2023-04-09T17:48:58.105Z,17.03
2023-04-09T17:51:26.528Z,22.20
2023-04-09T17:53:54.269Z,52.70
2023-04-09T17:56:22.744Z,50.30
2023-04-09T17:58:50.040Z,42.70
2023-04-09T18:01:17.462Z,26.80
2023-04-09T18:03:46.175Z,16.73
2023-04-09T18:06:15.335Z,16.10
2023-04-09T18:08:43.374Z,23.70
2023-04-09T18:11:13.186Z,18.40
2023-04-09T18:13:41.313Z,15.70
2023-04-09T18:16:12.194Z,16.97
2023-04-09T18:18:39.686Z,25.13
2023-04-09T18:21:06.900Z,45.67
2023-04-09T18:23:34.073Z,44.20
2023-04-09T18:26:01.194Z,52.73
2023-04-09T18:28:28.400Z,33.13
2023-04-09T18:30:55.859Z,23.60
2023-04-09T18:33:23.057Z,21.50
2023-04-09T18:35:50.394Z,16.70
2023-04-09T18:38:17.877Z,12.93
2023-04-09T18:40:45.195Z,17.47
2023-04-09T18:43:12.481Z,15.37
2023-04-09T18:45:39.776Z,15.53
2023-04-09T18:48:08.570Z,15.80
2023-04-09T18:50:36.141Z,14.17
2023-04-09T18:53:03.641Z,14.57
2023-04-09T18:55:31.073Z,17.10
2023-04-09T18:57:58.373Z,20.53
2023-04-09T19:00:25.557Z,24.30
2023-04-09T19:02:52.850Z,20.00
2023-04-09T19:05:20.251Z,28.83
2023-04-09T19:07:47.371Z,23.27
2023-04-09T19:10:14.532Z,23.30
2023-04-09T19:12:48.420Z,18.93
2023-04-09T19:15:16.100Z,17.53
2023-04-09T19:17:43.420Z,16.13
2023-04-09T19:20:10.761Z,14.27
2023-04-09T19:22:37.928Z,15.40
2023-04-09T19:25:07.361Z,16.97
2023-04-09T19:27:34.537Z,16.60
2023-04-09T19:30:01.741Z,20.83
2023-04-09T19:32:28.984Z,20.23
2023-04-09T19:34:56.254Z,19.93
2023-04-09T19:37:27.884Z,18.63
2023-04-09T19:39:55.810Z,19.10
2023-04-09T19:42:23.108Z,19.30
2023-04-09T19:44:50.230Z,19.00
2023-04-09T19:47:17.522Z,20.70
2023-04-09T19:49:44.868Z,17.93
2023-04-09T19:52:12.074Z,21.00
2023-04-09T19:54:39.256Z,21.63
2023-04-09T19:57:06.380Z,20.93
2023-04-09T19:59:36.274Z,19.87
2023-04-09T20:02:03.767Z,22.00
2023-04-09T20:04:31.224Z,19.93
2023-04-09T20:06:58.364Z,19.20
2023-04-09T20:09:27.661Z,18.87
2023-04-09T20:11:54.897Z,18.20
2023-04-09T20:14:22.472Z,20.53
2023-04-09T20:16:49.699Z,22.00
2023-04-09T20:19:17.140Z,19.53
2023-04-09T20:21:44.300Z,20.33
2023-04-09T20:24:11.427Z,22.83
2023-04-09T20:26:38.607Z,21.50
2023-04-09T20:29:06.352Z,22.67
2023-04-09T20:31:35.048Z,21.17
2023-04-09T20:34:02.870Z,21.37
2023-04-09T20:36:30.309Z,20.90
2023-04-09T20:38:57.410Z,19.70
2023-04-09T20:41:24.560Z,21.37
2023-04-09T20:43:51.702Z,21.03
2023-04-09T20:46:19.062Z,21.00
2023-04-09T20:48:46.266Z,21.00
2023-04-09T20:51:14.428Z,22.07
2023-04-09T20:53:41.605Z,21.07
2023-04-09T20:56:09.477Z,20.63
2023-04-09T20:58:37.088Z,20.40
2023-04-09T21:01:09.381Z,17.37
2023-04-09T21:03:40.165Z,19.30
2023-04-09T21:06:08.352Z,22.53
2023-04-09T21:08:36.440Z,20.97
2023-04-09T21:11:03.617Z,21.67
2023-04-09T21:13:40.286Z,21.53
2023-04-09T21:16:18.135Z,22.10
2023-04-09T21:18:45.553Z,21.40
2023-04-09T21:21:14.160Z,22.83
2023-04-09T21:23:41.578Z,22.73
2023-04-09T21:26:10.059Z,23.60
2023-04-09T21:28:37.231Z,31.83
2023-04-09T21:31:04.420Z,24.87
2023-04-09T21:33:31.579Z,22.80
2023-04-09T21:35:58.797Z,25.20
2023-04-09T21:38:26.077Z,24.53
2023-04-09T21:40:53.217Z,22.03
2023-04-09T21:43:20.336Z,22.40
2023-04-09T21:45:47.500Z,22.97
2023-04-09T21:48:14.653Z,21.40
2023-04-09T21:50:41.926Z,20.03
2023-04-09T21:53:09.064Z,20.03
2023-04-09T21:55:37.159Z,19.63
2023-04-09T21:58:04.295Z,20.77
2023-04-09T22:00:32.090Z,21.17
2023-04-09T22:03:01.489Z,20.03
2023-04-09T22:05:29.075Z,24.73
2023-04-09T22:07:56.561Z,22.47
2023-04-09T22:10:24.186Z,23.23
2023-04-09T22:12:51.428Z,24.03
2023-04-09T22:15:19.612Z,24.67
2023-04-09T22:17:47.406Z,25.47
2023-04-09T22:20:14.711Z,25.90
2023-04-09T22:22:42.405Z,25.40
2023-04-09T22:25:11.169Z,23.53
2023-04-09T22:27:38.944Z,26.53
2023-04-09T22:30:06.778Z,24.20
2023-04-09T22:32:34.099Z,26.33
2023-04-09T22:35:01.451Z,23.87
2023-04-09T22:37:28.589Z,26.10
2023-04-09T22:39:55.946Z,25.40
2023-04-09T22:42:24.381Z,26.30
2023-04-09T22:44:51.512Z,24.47
2023-04-09T22:47:18.710Z,25.30
2023-04-09T22:49:46.159Z,28.87
2023-04-09T22:52:13.333Z,26.80
2023-04-09T22:54:41.406Z,26.43
2023-04-09T22:57:08.554Z,28.93
2023-04-09T23:02:06.143Z,26.20
2023-04-09T23:04:34.844Z,26.50
2023-04-09T23:07:02.511Z,26.93
2023-04-09T23:09:31.081Z,27.87
2023-04-09T23:11:58.243Z,28.70
2023-04-09T23:14:25.370Z,31.27
2023-04-09T23:16:52.512Z,28.93
2023-04-09T23:19:19.609Z,25.83
2023-04-09T23:21:46.728Z,30.50
2023-04-09T23:24:13.903Z,26.90
2023-04-09T23:26:41.342Z,25.37
2023-04-09T23:29:08.511Z,28.67
2023-04-09T23:31:35.764Z,26.90
2023-04-09T23:34:02.894Z,29.43
2023-04-09T23:36:30.946Z,30.20
2023-04-09T23:38:58.112Z,27.67
2023-04-09T23:41:26.223Z,28.47
2023-04-09T23:43:53.499Z,29.00
2023-04-09T23:46:20.818Z,28.80
2023-04-09T23:48:47.962Z,30.73
2023-04-09T23:51:18.673Z,27.90
2023-04-09T23:53:46.193Z,28.40
2023-04-09T23:56:14.440Z,31.73
2023-04-09T23:58:41.579Z,30.83
